createdAt,value
2022-10-17T00:01:47.278Z,100.00
2022-10-17T00:04:15.331Z,100.00
2022-10-17T00:06:44.366Z,100.00
2022-10-17T00:09:16.098Z,100.00
2022-10-17T00:11:44.143Z,100.00
2022-10-17T00:14:15.172Z,100.00
2022-10-17T00:16:49.402Z,100.00
2022-10-17T00:19:20.146Z,100.00
2022-10-17T00:21:50.703Z,100.00
2022-10-17T00:24:18.711Z,100.00
2022-10-17T00:26:46.978Z,100.00
2022-10-17T00:29:17.674Z,100.00
2022-10-17T00:31:50.344Z,100.00
2022-10-17T00:34:18.922Z,100.00
2022-10-17T00:36:46.835Z,100.00
2022-10-17T00:39:15.281Z,100.00
2022-10-17T00:41:43.574Z,100.00
2022-10-17T00:44:47.560Z,100.00
2022-10-17T00:47:20.630Z,100.00
2022-10-17T00:49:49.603Z,100.00
2022-10-17T00:52:21.447Z,100.00
2022-10-17T00:54:53.244Z,100.00
2022-10-17T00:57:21.597Z,100.00
2022-10-17T00:59:54.822Z,100.00
2022-10-17T01:02:24.926Z,100.00
2022-10-17T01:04:55.769Z,100.00
2022-10-17T01:07:24.355Z,100.00
2022-10-17T01:09:52.735Z,100.00
2022-10-17T01:12:25.755Z,100.00
2022-10-17T01:15:12.254Z,100.00
2022-10-17T01:17:56.444Z,100.00
2022-10-17T01:20:49.231Z,100.00
2022-10-17T01:23:30.331Z,100.00
2022-10-17T01:26:08.075Z,100.00
2022-10-17T01:29:07.534Z,100.00
2022-10-17T01:31:46.427Z,100.00
2022-10-17T01:34:19.427Z,100.00
2022-10-17T01:36:52.482Z,100.00
2022-10-17T01:39:30.023Z,100.00
2022-10-17T01:42:03.457Z,100.00
2022-10-17T01:44:40.744Z,100.00
2022-10-17T01:47:14.682Z,100.00
2022-10-17T01:49:46.308Z,100.00
2022-10-17T01:52:19.856Z,100.00
2022-10-17T01:54:55.307Z,100.00
2022-10-17T01:57:29.742Z,100.00
2022-10-17T01:59:58.707Z,100.00
2022-10-17T02:02:30.653Z,100.00
2022-10-17T02:05:04.083Z,100.00
2022-10-17T02:07:32.993Z,100.00
2022-10-17T02:10:01.143Z,100.00
2022-10-17T02:12:46.945Z,100.00
2022-10-17T02:15:34.631Z,100.00
2022-10-17T02:18:16.873Z,100.00
2022-10-17T02:20:53.865Z,100.00
2022-10-17T02:23:29.064Z,100.00
2022-10-17T02:28:48.312Z,100.00
2022-10-17T02:31:19.024Z,100.00
2022-10-17T02:33:51.484Z,100.00
2022-10-17T02:36:23.604Z,100.00
2022-10-17T02:38:55.491Z,100.00
2022-10-17T02:41:25.437Z,100.00
2022-10-17T02:43:57.707Z,100.00
2022-10-17T02:46:29.670Z,100.00
2022-10-17T02:49:02.866Z,100.00
2022-10-17T02:51:34.286Z,100.00
2022-10-17T02:54:10.475Z,100.00
2022-10-17T02:56:44.625Z,100.00
2022-10-17T02:59:18.705Z,100.00
2022-10-17T03:01:47.037Z,100.00
2022-10-17T03:04:16.506Z,100.00
2022-10-17T03:06:47.217Z,100.00
2022-10-17T03:09:19.636Z,100.00
2022-10-17T03:11:49.668Z,100.00
2022-10-17T03:14:19.436Z,100.00
2022-10-17T03:16:48.101Z,100.00
2022-10-17T03:19:18.575Z,100.00
2022-10-17T03:21:46.957Z,100.00
2022-10-17T03:24:15.222Z,100.00
2022-10-17T03:26:43.581Z,100.00
2022-10-17T03:29:12.082Z,100.00
2022-10-17T03:31:41.923Z,100.00
2022-10-17T03:34:11.307Z,100.00
2022-10-17T03:36:39.562Z,100.00
2022-10-17T03:39:07.583Z,100.00
2022-10-17T03:41:36.418Z,100.00
2022-10-17T03:44:04.737Z,100.00
2022-10-17T03:46:33.114Z,100.00
2022-10-17T03:49:05.713Z,100.00
2022-10-17T03:51:34.673Z,100.00
2022-10-17T03:54:07.059Z,100.00
2022-10-17T03:56:35.528Z,100.00
2022-10-17T03:59:08.076Z,100.00
2022-10-17T04:01:38.511Z,100.00
2022-10-17T04:04:07.985Z,100.00
2022-10-17T04:06:39.595Z,100.00
2022-10-17T04:09:08.648Z,100.00
2022-10-17T04:11:47.601Z,100.00
2022-10-17T04:14:18.553Z,100.00
2022-10-17T04:16:48.854Z,100.00
2022-10-17T04:19:22.706Z,100.00
2022-10-17T04:21:51.627Z,100.00
2022-10-17T04:24:23.143Z,100.00
2022-10-17T04:27:11.849Z,100.00
2022-10-17T04:29:44.945Z,100.00
2022-10-17T04:32:19.331Z,100.00
2022-10-17T04:34:52.769Z,100.00
2022-10-17T04:37:23.313Z,100.00
2022-10-17T04:39:53.430Z,100.00
2022-10-17T04:42:21.799Z,100.00
2022-10-17T04:44:52.635Z,100.00
2022-10-17T04:47:20.537Z,100.00
2022-10-17T04:49:48.866Z,100.00
2022-10-17T04:52:19.166Z,100.00
2022-10-17T04:54:50.339Z,100.00
2022-10-17T04:57:19.843Z,100.00
2022-10-17T05:02:57.843Z,100.00
2022-10-17T05:05:27.204Z,100.00
2022-10-17T05:07:59.486Z,100.00
2022-10-17T05:10:31.640Z,100.00
2022-10-17T05:13:00.346Z,100.00
2022-10-17T05:15:32.458Z,100.00
2022-10-17T05:18:03.282Z,100.00
2022-10-17T05:20:34.775Z,100.00
2022-10-17T05:23:04.294Z,100.00
2022-10-17T05:25:37.579Z,100.00
2022-10-17T05:28:06.003Z,100.00
2022-10-17T05:30:37.481Z,100.00
2022-10-17T05:33:08.037Z,100.00
2022-10-17T05:35:37.291Z,100.00
2022-10-17T05:38:08.128Z,100.00
2022-10-17T05:40:38.661Z,100.00
2022-10-17T05:43:06.824Z,100.00
2022-10-17T05:45:35.343Z,100.00
2022-10-17T05:48:03.738Z,100.00
2022-10-17T05:50:32.592Z,100.00
2022-10-17T05:53:05.540Z,100.00
2022-10-17T05:55:40.899Z,100.00
2022-10-17T05:58:11.769Z,100.00
2022-10-17T06:00:51.729Z,100.00
2022-10-17T06:03:22.333Z,100.00
2022-10-17T06:05:52.010Z,100.00
2022-10-17T06:08:20.526Z,100.00
2022-10-17T06:10:50.948Z,100.00
2022-10-17T06:13:19.447Z,100.00
2022-10-17T06:15:53.783Z,100.00
2022-10-17T06:18:21.720Z,100.00
2022-10-17T06:20:50.047Z,100.00
2022-10-17T06:23:21.452Z,100.00
2022-10-17T06:26:01.185Z,100.00
2022-10-17T06:28:31.193Z,100.00
2022-10-17T06:30:59.417Z,100.00
2022-10-17T06:33:28.469Z,100.00
2022-10-17T06:35:59.123Z,100.00
2022-10-17T06:38:27.849Z,100.00
2022-10-17T06:41:08.214Z,100.00
2022-10-17T06:43:39.315Z,100.00
2022-10-17T06:46:29.706Z,100.00
2022-10-17T06:49:04.858Z,100.00
2022-10-17T06:51:50.078Z,100.00
2022-10-17T06:54:21.181Z,100.00
2022-10-17T06:57:00.631Z,100.00
2022-10-17T06:59:41.355Z,100.00
2022-10-17T07:02:17.810Z,100.00
2022-10-17T07:04:47.590Z,100.00
2022-10-17T07:07:15.722Z,100.00
2022-10-17T07:09:43.987Z,100.00
2022-10-17T07:12:13.418Z,100.00
2022-10-17T07:14:47.477Z,100.00
2022-10-17T07:17:15.581Z,100.00
2022-10-17T07:19:44.677Z,100.00
2022-10-17T07:22:13.890Z,100.00
2022-10-17T07:24:45.855Z,100.00
2022-10-17T07:29:39.125Z,100.00
2022-10-17T07:32:10.807Z,100.00
2022-10-17T07:34:41.096Z,100.00
2022-10-17T07:37:11.799Z,100.00
2022-10-17T07:39:42.678Z,100.00
2022-10-17T07:42:12.049Z,100.00
2022-10-17T07:44:41.476Z,100.00
2022-10-17T07:47:11.024Z,100.00
2022-10-17T07:49:43.996Z,100.00
2022-10-17T07:52:13.196Z,100.00
2022-10-17T07:54:41.656Z,100.00
2022-10-17T07:57:10.593Z,99.89
2022-10-17T07:59:42.541Z,97.80
2022-10-17T08:02:19.509Z,100.00
2022-10-17T08:04:47.391Z,92.26
2022-10-17T08:07:22.133Z,92.98
2022-10-17T08:09:53.702Z,91.74
2022-10-17T08:12:22.210Z,91.14
2022-10-17T08:14:51.479Z,89.87
2022-10-17T08:17:19.805Z,85.20
2022-10-17T08:19:47.744Z,86.67
2022-10-17T08:22:15.780Z,86.25
2022-10-17T08:24:44.541Z,84.89
2022-10-17T08:27:13.657Z,84.99
2022-10-17T08:29:42.031Z,87.87
2022-10-17T08:32:11.454Z,88.16
2022-10-17T08:34:39.381Z,89.77
2022-10-17T08:39:42.654Z,90.33
2022-10-17T08:42:28.012Z,88.32
2022-10-17T08:45:05.063Z,91.30
2022-10-17T08:47:41.036Z,89.75
2022-10-17T08:50:15.480Z,90.67
2022-10-17T08:52:49.176Z,93.34
2022-10-17T08:57:54.904Z,93.28
2022-10-17T09:00:23.536Z,93.15
2022-10-17T09:03:06.697Z,94.73
2022-10-17T09:05:42.090Z,92.66
2022-10-17T09:08:28.439Z,90.53
2022-10-17T09:11:01.440Z,86.14
2022-10-17T09:13:45.013Z,84.47
2022-10-17T09:16:37.374Z,84.08
2022-10-17T09:19:16.604Z,83.29
2022-10-17T09:21:48.463Z,81.03
2022-10-17T09:24:22.450Z,84.23
2022-10-17T09:26:55.058Z,85.01
2022-10-17T09:29:31.161Z,80.57
2022-10-17T09:32:14.765Z,77.20
2022-10-17T09:34:44.658Z,76.44
2022-10-17T09:37:17.123Z,71.33
2022-10-17T09:39:45.793Z,68.70
2022-10-17T09:42:18.796Z,65.66
2022-10-17T09:44:52.037Z,64.59
2022-10-17T09:47:31.176Z,69.05
2022-10-17T09:50:04.268Z,69.81
2022-10-17T09:52:37.839Z,70.70
2022-10-17T09:55:18.910Z,63.79
2022-10-17T09:57:55.204Z,64.43
2022-10-17T10:00:26.100Z,63.57
2022-10-17T10:03:10.231Z,64.04
2022-10-17T10:05:39.842Z,66.52
2022-10-17T10:08:15.205Z,64.31
2022-10-17T10:10:44.265Z,64.63
2022-10-17T10:13:21.061Z,64.95
2022-10-17T10:15:50.524Z,62.44
2022-10-17T10:18:37.033Z,62.63
2022-10-17T10:21:10.577Z,63.24
2022-10-17T10:23:42.389Z,64.87
2022-10-17T10:26:26.677Z,64.33
2022-10-17T10:29:00.884Z,64.00
2022-10-17T10:31:37.537Z,63.67
2022-10-17T10:34:18.562Z,62.83
2022-10-17T10:37:02.014Z,59.10
2022-10-17T10:39:46.816Z,57.55
2022-10-17T10:42:25.770Z,60.13
2022-10-17T10:44:57.090Z,58.43
2022-10-17T10:47:29.628Z,58.67
2022-10-17T10:50:27.786Z,58.85
2022-10-17T10:53:14.403Z,57.29
2022-10-17T10:55:49.637Z,57.00
2022-10-17T10:58:36.812Z,58.70
2022-10-17T11:01:18.597Z,58.88
2022-10-17T11:03:58.371Z,58.19
2022-10-17T11:06:29.754Z,59.59
2022-10-17T11:09:14.335Z,60.03
2022-10-17T11:11:48.120Z,61.38
2022-10-17T11:14:19.847Z,60.21
2022-10-17T11:16:53.858Z,60.79
2022-10-17T11:19:26.740Z,59.60
2022-10-17T11:22:07.137Z,57.83
2022-10-17T11:24:42.110Z,56.40
2022-10-17T11:27:10.687Z,54.29
2022-10-17T11:29:41.203Z,51.25
2022-10-17T11:32:14.707Z,54.58
2022-10-17T11:34:47.441Z,56.85
2022-10-17T11:37:20.497Z,55.84
2022-10-17T11:39:53.787Z,57.84
2022-10-17T11:42:28.998Z,55.42
2022-10-17T11:45:02.964Z,56.92
2022-10-17T11:47:41.855Z,56.16
2022-10-17T11:53:15.407Z,53.62
2022-10-17T11:55:46.708Z,52.05
2022-10-17T11:58:33.987Z,52.91
2022-10-17T12:01:14.368Z,56.40
2022-10-17T12:04:13.609Z,55.72
2022-10-17T12:06:54.072Z,54.91
2022-10-17T12:09:33.372Z,56.55
2022-10-17T12:12:05.819Z,57.46
2022-10-17T12:14:40.753Z,58.84
2022-10-17T12:17:34.876Z,59.48
2022-10-17T12:20:27.267Z,61.60
2022-10-17T12:22:56.921Z,64.54
2022-10-17T12:25:29.836Z,66.49
2022-10-17T12:30:51.084Z,66.57
2022-10-17T12:33:23.004Z,67.05
2022-10-17T12:35:52.401Z,69.42
2022-10-17T12:38:28.629Z,70.04
2022-10-17T12:41:03.702Z,71.15
2022-10-17T12:43:52.834Z,71.16
2022-10-17T12:46:58.449Z,71.27
2022-10-17T12:49:44.241Z,71.39
2022-10-17T12:52:41.896Z,71.43
2022-10-17T12:55:14.954Z,72.55
2022-10-17T12:57:51.054Z,71.92
2022-10-17T13:00:23.722Z,72.47
2022-10-17T13:02:57.573Z,72.32
2022-10-17T13:05:29.444Z,73.61
2022-10-17T13:08:00.267Z,71.94
2022-10-17T13:10:31.664Z,70.70
2022-10-17T13:13:11.908Z,68.49
2022-10-17T13:15:47.814Z,71.33
2022-10-17T13:18:24.309Z,71.30
2022-10-17T13:21:01.324Z,70.72
2022-10-17T13:23:32.683Z,70.61
2022-10-17T13:26:08.727Z,69.34
2022-10-17T13:28:45.915Z,70.31
2022-10-17T13:31:30.865Z,72.49
2022-10-17T13:34:04.897Z,71.42
2022-10-17T13:36:36.276Z,70.45
2022-10-17T13:39:12.260Z,70.33
2022-10-17T13:41:42.837Z,69.75
2022-10-17T13:44:15.096Z,70.53
2022-10-17T13:46:44.763Z,70.97
2022-10-17T13:49:23.251Z,71.03
2022-10-17T13:51:55.870Z,70.44
2022-10-17T13:54:35.847Z,70.28
2022-10-17T13:57:05.488Z,70.91
2022-10-17T13:59:38.528Z,73.17
2022-10-17T14:02:12.577Z,72.54
2022-10-17T14:05:11.520Z,72.07
2022-10-17T14:07:58.166Z,72.22
2022-10-17T14:10:27.084Z,73.38
2022-10-17T14:12:56.361Z,75.51
2022-10-17T14:15:30.656Z,74.56
2022-10-17T14:18:07.921Z,75.07
2022-10-17T14:21:28.668Z,74.96
2022-10-17T14:23:37.596Z,76.08
2022-10-17T14:26:11.559Z,77.15
2022-10-17T14:28:43.966Z,77.06
2022-10-17T14:31:24.920Z,77.59
2022-10-17T14:33:56.045Z,78.75
2022-10-17T14:36:41.961Z,81.40
2022-10-17T14:39:20.754Z,81.66
2022-10-17T14:41:49.372Z,82.79
2022-10-17T14:44:22.569Z,83.67
2022-10-17T14:46:55.358Z,85.16
2022-10-17T14:49:29.421Z,83.92
2022-10-17T14:52:26.977Z,84.33
2022-10-17T14:54:55.619Z,85.26
2022-10-17T14:57:29.977Z,84.56
2022-10-17T14:59:59.321Z,84.95
2022-10-17T15:02:31.305Z,83.84
2022-10-17T15:04:59.610Z,85.68
2022-10-17T15:07:29.460Z,84.27
2022-10-17T15:09:57.484Z,83.30
2022-10-17T15:12:28.544Z,83.63
2022-10-17T15:14:57.234Z,83.20
2022-10-17T15:17:27.007Z,82.09
2022-10-17T15:19:55.940Z,81.83
2022-10-17T15:22:24.571Z,79.92
2022-10-17T15:24:56.319Z,80.38
2022-10-17T15:27:26.483Z,81.07
2022-10-17T15:29:54.605Z,81.63
2022-10-17T15:32:23.013Z,80.25
2022-10-17T15:34:54.023Z,80.99
2022-10-17T15:37:24.350Z,81.52
2022-10-17T15:39:56.345Z,82.40
2022-10-17T15:42:28.758Z,83.45
2022-10-17T15:44:57.671Z,83.97
2022-10-17T15:47:28.368Z,84.74
2022-10-17T15:49:56.981Z,86.67
2022-10-17T15:52:26.011Z,87.93
2022-10-17T15:54:54.420Z,89.43
2022-10-17T15:57:26.716Z,90.46
2022-10-17T15:59:56.523Z,91.09
2022-10-17T16:02:25.166Z,92.45
2022-10-17T16:04:53.918Z,93.30
2022-10-17T16:07:22.529Z,96.17
2022-10-17T16:09:50.511Z,98.84
2022-10-17T16:12:29.195Z,100.00
2022-10-17T16:15:01.962Z,100.00
2022-10-17T16:17:32.340Z,100.00
2022-10-17T16:20:00.585Z,100.00
2022-10-17T16:22:33.369Z,100.00
2022-10-17T16:25:09.270Z,100.00
2022-10-17T16:27:40.474Z,100.00
2022-10-17T16:30:10.420Z,100.00
2022-10-17T16:32:38.711Z,100.00
2022-10-17T16:35:07.940Z,100.00
2022-10-17T16:37:35.953Z,100.00
2022-10-17T16:40:04.552Z,100.00
2022-10-17T16:42:34.947Z,100.00
2022-10-17T16:45:05.938Z,100.00
2022-10-17T16:47:35.385Z,100.00
2022-10-17T16:50:03.717Z,100.00
2022-10-17T16:52:33.229Z,100.00
2022-10-17T16:55:01.726Z,100.00
2022-10-17T16:57:29.701Z,100.00
2022-10-17T16:59:58.136Z,100.00
2022-10-17T17:02:27.354Z,100.00
2022-10-17T17:04:56.985Z,100.00
2022-10-17T17:07:25.178Z,100.00
2022-10-17T17:09:53.710Z,100.00
2022-10-17T17:12:24.307Z,100.00
2022-10-17T17:14:52.473Z,100.00
2022-10-17T17:17:30.615Z,100.00
2022-10-17T17:20:11.137Z,100.00
2022-10-17T17:22:39.304Z,100.00
2022-10-17T17:25:07.723Z,100.00
2022-10-17T17:27:38.046Z,100.00
2022-10-17T17:31:39.435Z,100.00
2022-10-17T17:34:07.661Z,100.00
2022-10-17T17:36:38.098Z,100.00
2022-10-17T17:39:08.588Z,100.00
2022-10-17T17:41:39.453Z,100.00
2022-10-17T17:44:11.209Z,100.00
2022-10-17T17:46:43.751Z,100.00
2022-10-17T17:49:12.621Z,100.00
2022-10-17T17:51:41.479Z,100.00
2022-10-17T17:54:12.704Z,100.00
2022-10-17T17:56:40.893Z,100.00
2022-10-17T17:59:08.911Z,100.00
2022-10-17T18:01:38.903Z,100.00
2022-10-17T18:04:09.935Z,100.00
2022-10-17T18:06:39.276Z,100.00
2022-10-17T18:09:10.661Z,100.00
2022-10-17T18:11:39.674Z,100.00
2022-10-17T18:14:11.612Z,100.00
2022-10-17T18:16:39.892Z,100.00
2022-10-17T18:19:11.839Z,100.00
2022-10-17T18:21:40.127Z,100.00
2022-10-17T18:24:08.622Z,100.00
2022-10-17T18:26:37.211Z,100.00
2022-10-17T18:29:05.700Z,100.00
2022-10-17T18:31:36.187Z,100.00
2022-10-17T18:34:05.478Z,100.00
2022-10-17T18:36:37.133Z,100.00
2022-10-17T18:39:07.498Z,100.00
2022-10-17T18:41:35.735Z,100.00
2022-10-17T18:44:07.073Z,100.00
2022-10-17T18:46:40.771Z,100.00
2022-10-17T18:49:09.933Z,100.00
2022-10-17T18:51:39.868Z,100.00
2022-10-17T18:54:14.552Z,100.00
2022-10-17T18:56:42.913Z,100.00
2022-10-17T18:59:11.127Z,100.00
2022-10-17T19:01:39.446Z,100.00
2022-10-17T19:04:07.478Z,100.00
2022-10-17T19:06:36.163Z,100.00
2022-10-17T19:09:07.525Z,100.00
2022-10-17T19:11:37.130Z,100.00
2022-10-17T19:14:12.621Z,100.00
2022-10-17T19:16:43.578Z,100.00
2022-10-17T19:19:14.120Z,100.00
2022-10-17T19:21:43.031Z,100.00
2022-10-17T19:24:16.873Z,100.00
2022-10-17T19:26:47.044Z,100.00
2022-10-17T19:29:18.614Z,100.00
2022-10-17T19:31:49.474Z,100.00
2022-10-17T19:34:18.850Z,100.00
2022-10-17T19:36:47.726Z,100.00
2022-10-17T19:39:19.094Z,100.00
2022-10-17T19:41:49.059Z,100.00
2022-10-17T19:44:19.547Z,100.00
2022-10-17T19:46:49.254Z,100.00
2022-10-17T19:49:18.000Z,100.00
2022-10-17T19:51:46.390Z,100.00
2022-10-17T19:54:20.226Z,100.00
2022-10-17T19:56:48.593Z,100.00
2022-10-17T19:59:17.785Z,100.00
2022-10-17T20:01:46.198Z,100.00
2022-10-17T20:04:14.671Z,100.00
2022-10-17T20:06:42.692Z,100.00
2022-10-17T20:09:16.522Z,100.00
2022-10-17T20:11:47.265Z,100.00
2022-10-17T20:14:15.197Z,100.00
2022-10-17T20:16:44.878Z,100.00
2022-10-17T20:19:14.045Z,100.00
2022-10-17T20:21:44.849Z,100.00
2022-10-17T20:24:15.750Z,100.00
2022-10-17T20:26:44.739Z,100.00
2022-10-17T20:29:16.991Z,100.00
2022-10-17T20:31:46.861Z,100.00
2022-10-17T20:34:17.425Z,100.00
2022-10-17T20:36:45.502Z,100.00
2022-10-17T20:39:14.836Z,100.00
2022-10-17T20:41:46.018Z,100.00
2022-10-17T20:44:15.364Z,100.00
2022-10-17T20:47:00.744Z,100.00
2022-10-17T20:49:32.428Z,100.00
2022-10-17T20:52:01.277Z,100.00
2022-10-17T20:54:29.484Z,100.00
2022-10-17T20:56:59.926Z,100.00
2022-10-17T20:59:32.275Z,100.00
2022-10-17T21:02:00.386Z,100.00
2022-10-17T21:04:46.680Z,100.00
2022-10-17T21:07:15.812Z,100.00
2022-10-17T21:09:43.795Z,100.00
2022-10-17T21:12:13.182Z,100.00
2022-10-17T21:14:50.100Z,100.00
2022-10-17T21:17:18.385Z,100.00
2022-10-17T21:19:46.191Z,100.00
2022-10-17T21:22:18.675Z,100.00
2022-10-17T21:24:49.539Z,100.00
2022-10-17T21:27:19.631Z,100.00
2022-10-17T21:29:49.810Z,100.00
2022-10-17T21:32:31.969Z,100.00
2022-10-17T21:35:07.058Z,100.00
2022-10-17T21:37:35.193Z,100.00
2022-10-17T21:40:06.195Z,100.00
2022-10-17T21:42:36.746Z,100.00
2022-10-17T21:45:15.340Z,100.00
2022-10-17T21:48:11.168Z,100.00
2022-10-17T21:50:36.382Z,100.00
2022-10-17T21:53:04.729Z,100.00
2022-10-17T21:55:37.495Z,100.00
2022-10-17T21:58:10.381Z,100.00
2022-10-17T22:00:39.803Z,100.00
2022-10-17T22:03:09.489Z,100.00
2022-10-17T22:05:37.345Z,100.00
2022-10-17T22:08:06.071Z,100.00
2022-10-17T22:10:36.584Z,100.00
2022-10-17T22:13:05.057Z,100.00
2022-10-17T22:15:33.154Z,100.00
2022-10-17T22:18:03.062Z,100.00
2022-10-17T22:20:30.949Z,100.00
2022-10-17T22:22:59.027Z,100.00
2022-10-17T22:25:29.398Z,100.00
2022-10-17T22:27:57.448Z,100.00
2022-10-17T22:32:40.267Z,100.00
2022-10-17T22:35:09.548Z,100.00
2022-10-17T22:37:37.741Z,100.00
2022-10-17T22:40:06.964Z,100.00
2022-10-17T22:42:34.959Z,100.00
2022-10-17T22:45:03.508Z,100.00
2022-10-17T22:47:33.954Z,100.00
2022-10-17T22:50:03.349Z,100.00
2022-10-17T22:52:33.972Z,100.00
2022-10-17T22:55:01.976Z,100.00
2022-10-17T22:57:29.899Z,100.00
2022-10-17T22:59:58.220Z,100.00
2022-10-17T23:02:26.416Z,100.00
2022-10-17T23:04:54.607Z,100.00
2022-10-17T23:07:26.309Z,100.00
2022-10-17T23:09:54.727Z,100.00
2022-10-17T23:12:25.845Z,100.00
2022-10-17T23:14:53.811Z,100.00
2022-10-17T23:17:22.106Z,100.00
2022-10-17T23:19:52.911Z,100.00
2022-10-17T23:22:23.599Z,100.00
2022-10-17T23:24:53.391Z,100.00
2022-10-17T23:27:21.452Z,100.00
2022-10-17T23:29:49.797Z,100.00
2022-10-17T23:32:20.358Z,100.00
2022-10-17T23:34:48.735Z,100.00
2022-10-17T23:37:16.774Z,100.00
2022-10-17T23:39:45.320Z,100.00
2022-10-17T23:42:14.732Z,100.00
2022-10-17T23:44:42.921Z,100.00
2022-10-17T23:47:10.863Z,100.00
2022-10-17T23:49:39.110Z,100.00
2022-10-17T23:52:07.582Z,100.00
2022-10-17T23:54:35.631Z,100.00
2022-10-17T23:57:03.778Z,100.00
2022-10-17T23:59:35.894Z,100.00
